createdAt,value
2022-11-21T00:01:37.439Z,0.80
2022-11-21T00:04:16.366Z,0.80
2022-11-21T00:06:46.549Z,0.87
2022-11-21T00:09:15.086Z,0.70
2022-11-21T00:11:43.707Z,0.90
2022-11-21T00:14:12.338Z,0.80
2022-11-21T00:16:41.891Z,0.90
2022-11-21T00:19:10.507Z,0.77
2022-11-21T00:21:39.785Z,0.77
2022-11-21T00:24:11.794Z,0.73
2022-11-21T00:26:40.288Z,0.60
2022-11-21T00:29:08.974Z,0.60
2022-11-21T00:31:37.518Z,0.53
2022-11-21T00:34:07.228Z,0.53
2022-11-21T00:36:35.811Z,0.70
2022-11-21T00:39:04.255Z,0.83
2022-11-21T00:41:34.853Z,0.70
2022-11-21T00:44:03.616Z,0.70
2022-11-21T00:46:32.177Z,0.67
2022-11-21T00:49:03.065Z,0.80
2022-11-21T00:51:31.804Z,0.70
2022-11-21T00:54:00.848Z,0.90
2022-11-21T00:56:30.767Z,0.80
2022-11-21T00:59:01.173Z,0.80
2022-11-21T01:01:29.690Z,0.90
2022-11-21T01:03:59.492Z,1.00
2022-11-21T01:06:28.905Z,0.90
2022-11-21T01:08:58.866Z,0.83
2022-11-21T01:11:28.680Z,0.80
2022-11-21T01:13:57.246Z,0.80
2022-11-21T01:16:28.756Z,0.90
2022-11-21T01:18:58.226Z,0.77
2022-11-21T01:21:27.652Z,0.90
2022-11-21T01:23:56.442Z,0.80
2022-11-21T01:26:26.236Z,0.90
2022-11-21T01:28:55.576Z,0.90
2022-11-21T01:31:29.359Z,0.90
2022-11-21T01:33:59.898Z,0.93
2022-11-21T01:36:30.366Z,0.90
2022-11-21T01:39:00.497Z,0.80
2022-11-21T01:41:31.523Z,1.00
2022-11-21T01:44:00.002Z,0.90
2022-11-21T01:46:29.902Z,1.00
2022-11-21T01:49:02.404Z,0.80
2022-11-21T01:51:34.205Z,1.10
2022-11-21T01:54:09.413Z,0.90
2022-11-21T01:56:42.596Z,1.00
2022-11-21T01:59:11.391Z,1.10
2022-11-21T02:01:41.527Z,1.00
2022-11-21T02:04:10.041Z,1.10
2022-11-21T02:06:39.089Z,1.03
2022-11-21T02:09:07.812Z,0.90
2022-11-21T02:11:39.137Z,1.07
2022-11-21T02:14:08.082Z,0.90
2022-11-21T02:16:37.263Z,1.20
2022-11-21T02:19:09.586Z,1.10
2022-11-21T02:21:46.502Z,0.90
2022-11-21T02:24:18.381Z,1.20
2022-11-21T02:26:48.591Z,1.20
2022-11-21T02:29:16.999Z,0.80
2022-11-21T02:31:45.433Z,1.10
2022-11-21T02:34:14.019Z,1.00
2022-11-21T02:36:45.432Z,1.23
2022-11-21T02:39:20.741Z,1.03
2022-11-21T02:41:55.811Z,1.10
2022-11-21T02:44:27.555Z,1.17
2022-11-21T02:46:58.772Z,1.20
2022-11-21T02:49:33.462Z,0.93
2022-11-21T02:52:02.083Z,1.10
2022-11-21T02:54:32.613Z,0.93
2022-11-21T02:57:04.171Z,1.00
2022-11-21T02:59:34.114Z,1.10
2022-11-21T03:02:04.427Z,0.90
2022-11-21T03:04:35.079Z,1.37
2022-11-21T03:07:05.845Z,1.00
2022-11-21T03:09:35.620Z,1.23
2022-11-21T03:12:17.066Z,1.37
2022-11-21T03:14:51.365Z,0.80
2022-11-21T03:17:20.970Z,1.00
2022-11-21T03:19:52.825Z,1.23
2022-11-21T03:22:22.434Z,1.10
2022-11-21T03:24:51.260Z,0.83
2022-11-21T03:27:29.784Z,1.00
2022-11-21T03:30:01.870Z,0.80
2022-11-21T03:32:41.219Z,0.90
2022-11-21T03:38:02.617Z,1.10
2022-11-21T03:40:32.368Z,0.90
2022-11-21T03:43:22.226Z,1.37
2022-11-21T03:45:52.649Z,0.80
2022-11-21T03:48:24.230Z,1.10
2022-11-21T03:51:08.630Z,0.77
2022-11-21T03:53:51.239Z,0.90
2022-11-21T03:56:24.552Z,0.80
2022-11-21T03:58:56.050Z,0.70
2022-11-21T04:01:26.993Z,0.83
2022-11-21T04:03:56.428Z,1.47
2022-11-21T04:06:25.277Z,1.10
2022-11-21T04:09:00.767Z,0.90
2022-11-21T04:11:32.142Z,1.20
2022-11-21T04:14:23.676Z,1.30
2022-11-21T04:16:55.618Z,1.30
2022-11-21T04:19:26.618Z,1.10
2022-11-21T04:21:55.277Z,1.07
2022-11-21T04:24:25.059Z,0.80
2022-11-21T04:26:56.513Z,1.17
2022-11-21T04:29:27.169Z,1.10
2022-11-21T04:31:55.860Z,1.00
2022-11-21T04:34:24.691Z,1.00
2022-11-21T04:36:53.966Z,0.83
2022-11-21T04:39:30.736Z,1.17
2022-11-21T04:41:59.731Z,1.03
2022-11-21T04:44:31.812Z,1.07
2022-11-21T04:47:05.116Z,1.10
2022-11-21T04:49:35.022Z,1.10
2022-11-21T04:54:46.741Z,1.00
2022-11-21T04:57:15.944Z,1.33
2022-11-21T04:59:59.462Z,1.00
2022-11-21T05:02:28.833Z,0.80
2022-11-21T05:05:04.663Z,0.97
2022-11-21T05:07:34.572Z,1.10
2022-11-21T05:10:04.406Z,1.40
2022-11-21T05:12:50.723Z,1.57
2022-11-21T05:15:24.588Z,1.00
2022-11-21T05:17:54.378Z,1.00
2022-11-21T05:20:23.742Z,1.20
2022-11-21T05:22:54.703Z,1.30
2022-11-21T05:25:24.157Z,1.10
2022-11-21T05:27:52.590Z,1.27
2022-11-21T05:30:22.552Z,1.20
2022-11-21T05:32:51.575Z,1.10
2022-11-21T05:35:21.149Z,1.03
2022-11-21T05:37:50.184Z,1.00
2022-11-21T05:40:18.792Z,1.37
2022-11-21T05:43:07.284Z,0.93
2022-11-21T05:45:38.853Z,1.40
2022-11-21T05:48:10.304Z,0.83
2022-11-21T05:50:44.564Z,1.23
2022-11-21T05:53:13.385Z,1.30
2022-11-21T05:55:48.614Z,0.90
2022-11-21T05:58:19.360Z,1.10
2022-11-21T06:00:50.574Z,1.00
2022-11-21T06:03:29.249Z,1.00
2022-11-21T06:06:04.742Z,1.13
2022-11-21T06:08:34.802Z,1.30
2022-11-21T06:11:03.439Z,1.10
2022-11-21T06:13:33.623Z,1.37
2022-11-21T06:16:04.289Z,1.40
2022-11-21T06:18:34.264Z,1.10
2022-11-21T06:21:04.461Z,1.00
2022-11-21T06:23:33.546Z,1.20
2022-11-21T06:26:02.882Z,1.10
2022-11-21T06:28:33.790Z,1.13
2022-11-21T06:31:06.283Z,1.10
2022-11-21T06:33:35.242Z,1.67
2022-11-21T06:36:06.736Z,1.37
2022-11-21T06:38:36.973Z,0.80
2022-11-21T06:41:15.644Z,1.17
2022-11-21T06:46:51.420Z,1.00
2022-11-21T06:57:59.845Z,1.50
2022-11-21T07:00:36.452Z,1.33
2022-11-21T07:03:22.596Z,0.90
2022-11-21T07:06:02.128Z,0.90
2022-11-21T07:08:37.322Z,1.20
2022-11-21T07:14:07.774Z,1.30
2022-11-21T07:17:01.142Z,0.83
2022-11-21T07:25:33.799Z,0.93
2022-11-21T07:28:09.964Z,1.30
2022-11-21T07:36:54.893Z,0.80
2022-11-21T07:39:28.412Z,0.87
2022-11-21T07:42:02.585Z,1.00
2022-11-21T07:44:34.913Z,0.97
2022-11-21T07:47:07.915Z,1.00
2022-11-21T07:59:06.050Z,0.90
2022-11-21T08:01:45.035Z,0.90
2022-11-21T08:04:19.221Z,0.50
2022-11-21T08:09:45.766Z,0.90
2022-11-21T08:12:28.412Z,0.90
2022-11-21T08:58:13.448Z,1.03
2022-11-21T09:00:42.380Z,0.90
2022-11-21T09:03:26.820Z,0.83
2022-11-21T09:06:14.278Z,0.80
2022-11-21T09:08:47.040Z,1.00
2022-11-21T09:11:38.496Z,0.90
2022-11-21T09:17:32.796Z,0.80
2022-11-21T09:22:54.929Z,0.90
2022-11-21T09:25:26.926Z,1.10
2022-11-21T09:27:57.582Z,0.90
2022-11-21T10:11:54.717Z,1.30
2022-11-21T10:14:43.937Z,0.90
2022-11-21T10:20:54.013Z,1.07
2022-11-21T10:29:27.368Z,1.30
2022-11-21T10:32:04.298Z,1.30
2022-11-21T10:34:46.113Z,1.43
2022-11-21T10:40:44.947Z,1.70
2022-11-21T11:04:47.372Z,1.33
2022-11-21T13:36:54.981Z,1.20
2022-11-21T13:49:41.166Z,1.30
2022-11-21T13:59:05.321Z,1.00
2022-11-21T14:01:55.628Z,1.60
2022-11-21T14:05:18.110Z,1.37
2022-11-21T14:07:48.859Z,1.10
2022-11-21T14:10:44.814Z,1.50
2022-11-21T14:13:24.700Z,1.57
2022-11-21T14:15:59.043Z,1.77
2022-11-21T14:18:39.032Z,1.50
2022-11-21T14:21:15.008Z,1.00
2022-11-21T14:24:30.016Z,1.43
2022-11-21T14:27:01.709Z,1.50
2022-11-21T14:29:50.411Z,1.30
2022-11-21T14:32:21.235Z,1.27
2022-11-21T14:37:52.884Z,1.10
2022-11-21T14:40:27.918Z,1.50
2022-11-21T14:43:29.701Z,1.50
2022-11-21T14:46:00.225Z,1.67
2022-11-21T14:48:37.145Z,2.00
2022-11-21T14:51:09.271Z,1.73
2022-11-21T14:53:43.627Z,1.73
2022-11-21T14:56:17.343Z,1.37
2022-11-21T14:59:16.287Z,1.50
2022-11-21T15:01:58.373Z,1.63
2022-11-21T15:07:31.362Z,1.00
2022-11-21T15:10:29.843Z,1.20
2022-11-21T15:13:18.965Z,1.40
2022-11-21T15:16:04.932Z,1.43
2022-11-21T15:21:29.091Z,1.80
2022-11-21T15:24:01.401Z,1.87
2022-11-21T15:26:48.705Z,2.00
2022-11-21T15:29:23.707Z,1.63
2022-11-21T15:32:16.449Z,2.10
2022-11-21T15:35:29.013Z,1.67
2022-11-21T16:07:58.990Z,1.33
2022-11-21T16:10:30.499Z,1.77
2022-11-21T16:13:03.933Z,1.90
2022-11-21T16:15:47.734Z,2.20
2022-11-21T16:21:30.163Z,2.23
2022-11-21T16:24:00.330Z,2.40
2022-11-21T16:32:35.997Z,2.33
2022-11-21T16:38:19.199Z,2.20
2022-11-21T16:40:59.045Z,2.40
2022-11-21T16:43:39.610Z,2.47
2022-11-21T16:46:12.406Z,2.80
2022-11-21T16:48:48.503Z,2.87
2022-11-21T16:51:25.996Z,2.53
2022-11-21T17:06:07.903Z,2.03
2022-11-21T17:08:48.297Z,2.50
2022-11-21T17:11:22.737Z,2.50
2022-11-21T17:13:55.125Z,2.47
2022-11-21T17:16:41.439Z,2.60
2022-11-21T17:19:12.692Z,2.53
2022-11-21T17:21:41.846Z,2.80
2022-11-21T17:24:14.048Z,2.70
2022-11-21T17:29:29.527Z,3.57
2022-11-21T17:32:13.441Z,3.33
2022-11-21T17:34:49.589Z,3.30
2022-11-21T17:37:21.135Z,4.37
2022-11-21T17:39:52.022Z,3.23
2022-11-21T17:42:22.261Z,3.00
2022-11-21T17:44:51.702Z,2.73
2022-11-21T17:47:22.120Z,2.63
2022-11-21T17:49:52.147Z,2.43
2022-11-21T17:52:24.199Z,2.93
2022-11-21T17:55:02.377Z,2.90
2022-11-21T17:57:42.931Z,2.97
2022-11-21T18:00:14.858Z,2.87
2022-11-21T18:05:51.686Z,2.43
2022-11-21T18:08:21.958Z,2.33
2022-11-21T18:10:59.680Z,2.00
2022-11-21T18:13:28.923Z,2.50
2022-11-21T18:16:05.067Z,2.10
2022-11-21T18:18:38.005Z,2.67
2022-11-21T18:24:18.386Z,1.90
2022-11-21T18:26:59.553Z,2.30
2022-11-21T18:29:48.218Z,2.20
2022-11-21T18:35:30.919Z,2.50
2022-11-21T18:47:24.146Z,2.80
2022-11-21T18:49:53.605Z,3.00
2022-11-21T18:52:23.669Z,2.47
2022-11-21T18:54:52.130Z,2.43
2022-11-21T18:57:24.455Z,2.23
2022-11-21T18:59:52.860Z,2.77
2022-11-21T19:02:22.842Z,2.60
2022-11-21T19:04:51.868Z,2.30
2022-11-21T19:07:34.832Z,2.43
2022-11-21T19:10:40.894Z,2.90
2022-11-21T19:12:55.622Z,3.50
2022-11-21T19:15:27.502Z,2.60
2022-11-21T19:43:54.405Z,2.87
2022-11-21T19:58:11.985Z,3.43
2022-11-21T20:00:45.176Z,4.27
2022-11-21T20:03:25.857Z,3.97
2022-11-21T20:06:01.343Z,3.50
2022-11-21T20:09:06.658Z,5.13
2022-11-21T20:54:17.063Z,3.27
2022-11-21T20:56:50.193Z,2.70
2022-11-21T20:59:34.219Z,2.70
2022-11-21T21:05:02.713Z,3.17
2022-11-21T21:07:32.554Z,3.20
2022-11-21T21:10:51.429Z,2.70
2022-11-21T21:19:25.513Z,2.80
2022-11-21T21:46:41.788Z,3.70
2022-11-21T21:55:46.339Z,3.40
2022-11-21T21:58:24.583Z,3.33
2022-11-21T22:00:57.581Z,2.80
2022-11-21T22:03:46.481Z,3.20
2022-11-21T22:06:18.258Z,2.93
2022-11-21T22:08:52.758Z,3.13
2022-11-21T22:11:43.217Z,2.83
2022-11-21T22:14:18.781Z,3.70
2022-11-21T22:16:51.956Z,2.73
2022-11-21T22:19:26.268Z,3.00
2022-11-21T22:22:02.228Z,3.23
2022-11-21T22:24:31.590Z,2.70
2022-11-21T22:27:14.257Z,2.70
2022-11-21T22:29:45.622Z,2.47
2022-11-21T22:32:19.646Z,3.07
2022-11-21T22:34:50.837Z,2.90
2022-11-21T22:37:22.478Z,3.00
2022-11-21T22:40:05.960Z,2.53
2022-11-21T22:42:36.775Z,2.77
2022-11-21T22:45:11.678Z,2.17
2022-11-21T22:53:19.775Z,2.10
2022-11-21T22:56:09.994Z,2.70
2022-11-21T22:58:53.631Z,2.87
2022-11-21T23:01:54.889Z,2.60
2022-11-21T23:04:26.429Z,2.27
2022-11-21T23:06:56.678Z,2.37
2022-11-21T23:09:26.037Z,2.20
2022-11-21T23:11:56.438Z,2.20
2022-11-21T23:14:31.132Z,2.20
2022-11-21T23:17:01.164Z,2.33
2022-11-21T23:19:33.684Z,2.27
2022-11-21T23:25:02.369Z,2.20
2022-11-21T23:27:31.010Z,2.57
2022-11-21T23:30:02.461Z,2.10
2022-11-21T23:32:46.006Z,2.20
2022-11-21T23:35:29.177Z,2.40
2022-11-21T23:37:58.635Z,2.37
2022-11-21T23:43:10.419Z,2.20
2022-11-21T23:45:40.556Z,2.23
2022-11-21T23:48:18.220Z,2.57
2022-11-21T23:53:36.269Z,2.40
2022-11-21T23:56:08.685Z,2.57
2022-11-21T23:58:43.420Z,2.10
